Time;durP1;ratioP1;P1;durP2;ratioP2;P2;SDS_P1;SDS_P2;PMS_P1;PMS_P2;Temp;Humidity;BMP_temperature;BMP_pressure;BME280_temperature;BME280_humidity;BME280_pressure;Samples;Min_cycle;Max_cycle;Signal;HPM_P1;HPM_P2
2023/09/03 00:01:34;;;;;;;5.60;3.35;;;13.20;99.90;;;;;;4907166;29;20048;-66
2023/09/03 00:04:01;;;;;;;7.05;3.67;;;13.10;99.90;;;;;;4907458;29;20036;-66
2023/09/03 00:06:28;;;;;;;6.57;4.13;;;13.10;99.90;;;;;;4909912;29;20514;-66
2023/09/03 00:08:55;;;;;;;5.38;3.75;;;13.10;99.90;;;;;;4912961;29;20430;-66
2023/09/03 00:11:21;;;;;;;6.88;4.07;;;13.10;99.90;;;;;;4909002;29;20056;-65
2023/09/03 00:13:48;;;;;;;5.93;3.45;;;13.00;99.90;;;;;;4907918;29;20044;-65
2023/09/03 00:16:15;;;;;;;4.38;3.80;;;13.00;99.90;;;;;;4908521;29;20064;-67
2023/09/03 00:18:42;;;;;;;4.70;3.65;;;13.10;99.90;;;;;;4901105;29;20045;-65
2023/09/03 00:21:09;;;;;;;9.43;3.85;;;13.10;99.90;;;;;;4904922;29;20071;-66
2023/09/03 00:23:36;;;;;;;5.20;3.33;;;13.10;99.90;;;;;;4907629;29;20550;-70
2023/09/03 00:26:03;;;;;;;6.68;3.00;;;13.00;99.90;;;;;;4908681;29;20119;-65
2023/09/03 00:28:31;;;;;;;2.67;2.45;;;13.00;99.90;;;;;;4904563;29;20131;-66
2023/09/03 00:31:06;;;;;;;6.70;3.15;;;13.10;99.90;;;;;;4902795;29;20064;-72
2023/09/03 00:33:33;;;;;;;6.50;3.45;;;13.00;99.90;;;;;;4904737;29;20112;-64
2023/09/03 00:36:02;;;;;;;4.60;3.47;;;13.00;99.90;;;;;;4905109;29;20066;-67
2023/09/03 00:38:29;;;;;;;6.18;4.20;;;13.00;99.90;;;;;;4905446;29;20103;-65
2023/09/03 00:40:56;;;;;;;5.38;3.08;;;12.90;99.90;;;;;;4912304;29;20056;-65
2023/09/03 00:43:23;;;;;;;4.40;2.35;;;12.90;99.90;;;;;;4907657;29;20163;-65
2023/09/03 00:45:51;;;;;;;6.55;3.17;;;12.90;99.90;;;;;;4885420;29;20094;-66
2023/09/03 00:48:23;;;;;;;3.33;2.20;;;12.90;99.90;;;;;;4909451;29;20572;-67
2023/09/03 00:50:52;;;;;;;6.43;3.15;;;12.80;99.90;;;;;;4905915;29;20057;-67
2023/09/03 00:53:20;;;;;;;5.78;3.67;;;12.80;99.90;;;;;;4906952;29;20495;-66
2023/09/03 00:55:48;;;;;;;4.88;3.30;;;12.80;99.90;;;;;;4900334;29;20402;-69
2023/09/03 00:58:15;;;;;;;4.07;2.72;;;12.80;99.90;;;;;;4903573;29;20055;-70
2023/09/03 01:00:45;;;;;;;4.50;2.88;;;12.70;99.90;;;;;;4902638;29;20131;-65
2023/09/03 01:03:13;;;;;;;4.22;3.70;;;12.70;99.90;;;;;;4903989;29;20128;-69
2023/09/03 01:05:40;;;;;;;5.05;2.78;;;12.70;99.90;;;;;;4909997;29;20139;-67
2023/09/03 01:08:08;;;;;;;3.33;3.00;;;12.60;99.90;;;;;;4884898;29;20191;-70
2023/09/03 01:10:45;;;;;;;4.57;2.80;;;12.60;99.90;;;;;;4902989;29;20060;-65
2023/09/03 01:13:22;;;;;;;3.47;2.88;;;12.60;99.90;;;;;;4903114;29;20059;-65
2023/09/03 01:15:53;;;;;;;4.30;3.05;;;12.50;99.90;;;;;;4901682;29;20075;-66
2023/09/03 01:18:23;;;;;;;4.00;2.73;;;12.60;99.90;;;;;;4901839;29;20538;-69
2023/09/03 01:21:24;;;;;;;4.05;2.83;;;12.50;99.90;;;;;;4906486;29;20290;-66
2023/09/03 01:24:05;;;;;;;6.28;2.75;;;12.50;99.90;;;;;;4901913;29;20167;-66
2023/09/03 01:27:14;;;;;;;3.47;3.15;;;12.60;99.90;;;;;;4910210;29;20053;-66
2023/09/03 01:29:42;;;;;;;3.60;2.47;;;12.60;99.90;;;;;;4906981;29;20040;-66
2023/09/03 01:32:11;;;;;;;5.53;2.55;;;12.60;99.90;;;;;;4901385;29;20645;-66
2023/09/03 01:34:39;;;;;;;3.92;2.80;;;12.60;99.90;;;;;;4899207;29;20090;-72
2023/09/03 01:37:08;;;;;;;4.80;4.13;;;12.70;99.90;;;;;;4885585;29;20502;-66
2023/09/03 01:39:35;;;;;;;3.60;3.05;;;12.80;99.90;;;;;;4902971;29;20132;-66
2023/09/03 01:42:02;;;;;;;6.25;3.70;;;12.90;99.90;;;;;;4905199;29;20084;-69
2023/09/03 01:44:29;;;;;;;5.05;3.20;;;12.90;99.90;;;;;;4906237;29;20068;-66
2023/09/03 01:47:09;;;;;;;4.00;3.35;;;13.00;99.90;;;;;;4903127;29;20052;-66
2023/09/03 01:49:55;;;;;;;5.75;4.22;;;13.10;99.90;;;;;;4907972;29;20036;-67
2023/09/03 01:52:39;;;;;;;6.90;4.18;;;13.20;99.90;;;;;;4903966;29;20056;-66
2023/09/03 01:55:10;;;;;;;4.20;3.80;;;13.20;99.90;;;;;;4905133;29;20103;-68
2023/09/03 01:57:58;;;;;;;6.03;3.42;;;13.20;99.90;;;;;;4909050;29;20132;-68
2023/09/03 02:00:26;;;;;;;5.03;4.22;;;13.20;99.90;;;;;;4891395;29;20056;-70
2023/09/03 02:02:53;;;;;;;6.65;3.78;;;13.20;99.90;;;;;;4905342;29;20087;-68
2023/09/03 02:05:20;;;;;;;7.47;3.63;;;13.20;99.90;;;;;;4903137;29;20056;-66
2023/09/03 02:07:47;;;;;;;5.00;3.10;;;13.20;99.90;;;;;;4901001;29;20048;-68
2023/09/03 02:10:16;;;;;;;5.35;3.53;;;13.30;99.90;;;;;;4906427;29;20550;-66
2023/09/03 02:12:43;;;;;;;7.97;3.40;;;13.20;99.90;;;;;;4907914;29;20575;-68
2023/09/03 02:15:10;;;;;;;8.50;3.83;;;13.30;99.90;;;;;;4905292;29;20048;-69
2023/09/03 02:17:38;;;;;;;4.95;4.18;;;13.30;99.90;;;;;;4903830;29;20108;-68
2023/09/03 02:20:06;;;;;;;9.13;3.25;;;13.30;99.90;;;;;;4902834;29;20128;-66
2023/09/03 02:22:34;;;;;;;6.35;3.97;;;13.40;99.90;;;;;;4903209;29;20083;-66
2023/09/03 02:25:01;;;;;;;7.68;2.97;;;13.40;99.90;;;;;;4905747;29;20120;-66
2023/09/03 02:27:29;;;;;;;4.88;3.63;;;13.40;99.90;;;;;;4903697;29;20040;-66
2023/09/03 02:29:56;;;;;;;4.68;3.17;;;13.40;99.90;;;;;;4907128;29;20052;-69
2023/09/03 02:32:24;;;;;;;3.90;2.90;;;13.50;99.90;;;;;;4898232;29;20423;-66
2023/09/03 02:34:51;;;;;;;4.80;3.53;;;13.50;99.90;;;;;;4902585;29;20059;-67
2023/09/03 02:37:18;;;;;;;4.40;3.50;;;13.50;99.90;;;;;;4900956;29;20060;-69
2023/09/03 02:39:46;;;;;;;4.57;3.60;;;13.60;99.90;;;;;;4884101;29;20055;-66
2023/09/03 02:42:12;;;;;;;4.15;3.65;;;13.50;99.90;;;;;;4901241;29;20115;-66
2023/09/03 02:44:39;;;;;;;3.05;2.78;;;13.60;99.90;;;;;;4909407;29;20608;-69
2023/09/03 02:47:06;;;;;;;3.65;3.35;;;13.60;99.90;;;;;;4901843;29;20040;-66
2023/09/03 02:49:34;;;;;;;3.28;2.20;;;13.60;99.90;;;;;;4888000;29;20044;-67
2023/09/03 02:52:02;;;;;;;3.67;3.33;;;13.60;99.90;;;;;;4885704;29;20553;-69
2023/09/03 02:54:29;;;;;;;4.50;2.83;;;13.70;99.90;;;;;;4899751;29;20054;-65
2023/09/03 02:56:56;;;;;;;4.22;3.47;;;13.70;99.90;;;;;;4908230;29;20461;-66
2023/09/03 02:59:22;;;;;;;4.28;3.58;;;13.70;99.90;;;;;;4888053;29;20044;-68
2023/09/03 03:01:49;;;;;;;3.03;2.70;;;13.70;99.90;;;;;;4907178;29;20055;-65
2023/09/03 03:04:16;;;;;;;3.90;3.38;;;13.80;99.90;;;;;;4902729;29;20052;-68
2023/09/03 03:06:45;;;;;;;2.78;2.40;;;13.80;99.90;;;;;;4905357;29;20060;-69
2023/09/03 03:09:12;;;;;;;8.50;2.35;;;13.80;99.90;;;;;;4904274;29;20044;-66
2023/09/03 03:11:39;;;;;;;4.47;3.13;;;13.80;99.90;;;;;;4904287;29;20052;-67
2023/09/03 03:14:06;;;;;;;4.07;2.88;;;13.80;99.90;;;;;;4905849;29;20048;-69
2023/09/03 03:16:36;;;;;;;6.18;3.30;;;13.80;99.90;;;;;;4889154;29;20048;-67
2023/09/03 03:19:09;;;;;;;5.90;4.57;;;13.90;99.90;;;;;;4896763;29;20418;-66
2023/09/03 03:21:36;;;;;;;6.05;2.88;;;13.90;99.90;;;;;;4890866;29;20715;-66
2023/09/03 03:24:05;;;;;;;4.05;3.00;;;13.90;99.90;;;;;;4889604;29;20597;-69
2023/09/03 03:26:35;;;;;;;5.13;2.95;;;13.90;99.90;;;;;;4904883;29;20131;-69
2023/09/03 03:29:04;;;;;;;5.65;3.25;;;13.90;99.90;;;;;;4899812;29;20507;-68
2023/09/03 03:31:35;;;;;;;2.85;2.08;;;13.90;99.90;;;;;;4902199;29;20114;-67
2023/09/03 03:34:03;;;;;;;5.18;2.90;;;13.90;99.90;;;;;;4894830;29;20052;-69
2023/09/03 03:36:32;;;;;;;3.22;2.92;;;13.90;99.90;;;;;;4886377;29;20108;-65
2023/09/03 03:38:59;;;;;;;4.93;3.15;;;13.80;99.90;;;;;;4907897;29;20558;-67
2023/09/03 03:41:26;;;;;;;3.08;2.75;;;13.80;99.90;;;;;;4894555;29;20108;-65
2023/09/03 03:43:54;;;;;;;3.72;2.72;;;13.80;99.90;;;;;;4899260;29;20128;-65
2023/09/03 03:46:24;;;;;;;5.15;2.72;;;13.80;99.90;;;;;;4893548;29;20179;-65
2023/09/03 03:48:54;;;;;;;6.35;2.83;;;13.80;99.90;;;;;;4888023;29;20056;-66
2023/09/03 03:51:21;;;;;;;4.13;2.78;;;13.80;99.90;;;;;;4906100;29;20032;-67
2023/09/03 03:53:49;;;;;;;4.43;2.90;;;13.70;99.90;;;;;;4887471;29;20064;-65
2023/09/03 03:56:17;;;;;;;5.95;2.38;;;13.70;99.90;;;;;;4896686;29;20056;-69
2023/09/03 03:58:45;;;;;;;6.50;3.40;;;13.80;99.90;;;;;;4894519;29;20055;-68
2023/09/03 04:01:17;;;;;;;7.05;3.05;;;13.80;99.90;;;;;;4907844;29;20059;-66
2023/09/03 04:03:48;;;;;;;4.28;2.30;;;13.70;99.90;;;;;;4910205;29;20051;-65
2023/09/03 04:06:16;;;;;;;9.80;3.20;;;13.60;99.90;;;;;;4905399;29;20502;-69
2023/09/03 04:08:45;;;;;;;4.55;2.67;;;13.50;99.90;;;;;;4891815;29;20048;-66
2023/09/03 04:11:16;;;;;;;3.20;2.45;;;13.50;99.90;;;;;;4908128;29;20059;-68
2023/09/03 04:13:43;;;;;;;2.97;2.67;;;13.50;99.90;;;;;;4889955;29;20469;-67
2023/09/03 04:16:15;;;;;;;4.68;2.88;;;13.40;99.90;;;;;;4892111;29;20056;-68
2023/09/03 04:18:45;;;;;;;2.90;2.30;;;13.40;99.90;;;;;;4891903;29;20044;-73
2023/09/03 04:21:13;;;;;;;7.45;2.65;;;13.40;99.90;;;;;;4904856;29;20052;-65
2023/09/03 04:23:40;;;;;;;3.55;3.10;;;13.40;99.90;;;;;;4887147;29;20064;-67
2023/09/03 04:26:09;;;;;;;2.78;2.22;;;13.50;99.90;;;;;;4901273;29;20140;-67
2023/09/03 04:28:49;;;;;;;4.82;2.70;;;13.50;99.90;;;;;;4905646;29;20048;-65
2023/09/03 04:31:16;;;;;;;4.20;2.97;;;13.60;99.90;;;;;;4890522;29;20041;-65
2023/09/03 04:33:45;;;;;;;3.28;2.67;;;13.60;99.90;;;;;;4892360;29;20084;-66
2023/09/03 04:36:12;;;;;;;3.47;2.40;;;13.70;99.90;;;;;;4901092;29;20091;-67
2023/09/03 04:38:39;;;;;;;5.47;2.72;;;13.70;99.90;;;;;;4892941;29;20064;-67
2023/09/03 04:41:06;;;;;;;4.72;2.78;;;13.70;99.90;;;;;;4891788;29;20130;-67
2023/09/03 04:43:45;;;;;;;4.75;2.67;;;13.80;99.90;;;;;;4905744;29;20063;-66
2023/09/03 04:46:15;;;;;;;3.53;2.78;;;13.80;99.90;;;;;;4889255;29;20056;-66
2023/09/03 04:48:42;;;;;;;7.40;2.80;;;13.80;99.90;;;;;;4891611;29;20044;-67
2023/09/03 04:51:09;;;;;;;7.00;2.40;;;13.90;99.90;;;;;;4905108;29;20056;-69
2023/09/03 04:53:37;;;;;;;4.03;2.60;;;13.90;99.90;;;;;;4889219;29;20054;-66
2023/09/03 04:56:12;;;;;;;3.92;2.90;;;14.00;99.90;;;;;;4895552;29;20052;-68
2023/09/03 04:58:40;;;;;;;6.50;2.95;;;14.00;99.90;;;;;;4903450;29;20060;-65
2023/09/03 05:01:14;;;;;;;4.05;2.70;;;14.10;99.90;;;;;;4902826;29;20052;-68
2023/09/03 05:03:43;;;;;;;3.90;2.45;;;14.10;99.90;;;;;;4900340;29;20629;-66
2023/09/03 05:06:16;;;;;;;4.53;2.30;;;14.10;99.90;;;;;;4893822;29;20115;-66
2023/09/03 05:08:45;;;;;;;6.53;2.33;;;14.20;99.90;;;;;;4906015;29;20406;-66
2023/09/03 05:11:13;;;;;;;8.20;3.17;;;14.20;99.90;;;;;;4906955;29;20054;-65
2023/09/03 05:13:43;;;;;;;3.60;2.70;;;14.30;99.90;;;;;;4905433;29;20211;-69
2023/09/03 05:16:10;;;;;;;3.22;2.60;;;14.40;99.90;;;;;;4890087;29;20052;-67
2023/09/03 05:18:37;;;;;;;3.72;2.85;;;14.40;99.90;;;;;;4902969;29;20048;-68
2023/09/03 05:21:10;;;;;;;4.95;2.78;;;14.50;99.90;;;;;;4906071;29;20052;-67
2023/09/03 05:23:38;;;;;;;5.22;3.08;;;14.70;99.90;;;;;;4902222;29;20052;-66
2023/09/03 05:26:06;;;;;;;6.63;3.83;;;14.70;99.90;;;;;;4905277;29;20144;-67
2023/09/03 05:28:35;;;;;;;2.35;2.13;;;14.70;99.90;;;;;;4904164;29;20092;-67
2023/09/03 05:31:02;;;;;;;5.03;3.10;;;14.70;99.90;;;;;;4895989;29;20442;-65
2023/09/03 05:33:30;;;;;;;2.88;2.58;;;14.80;99.90;;;;;;4888218;29;20060;-66
2023/09/03 05:35:58;;;;;;;6.47;2.55;;;14.90;99.90;;;;;;4889060;29;20060;-66
2023/09/03 05:38:25;;;;;;;3.60;2.85;;;15.00;99.90;;;;;;4892067;29;20076;-65
2023/09/03 05:40:52;;;;;;;2.63;2.20;;;15.00;99.90;;;;;;4903250;29;20448;-68
2023/09/03 05:43:18;;;;;;;3.40;2.95;;;15.00;99.90;;;;;;4904482;29;20061;-65
2023/09/03 05:45:50;;;;;;;5.15;2.25;;;15.10;99.90;;;;;;4890741;29;20143;-65
2023/09/03 05:48:17;;;;;;;8.77;3.20;;;15.20;99.90;;;;;;4903082;29;20100;-65
2023/09/03 05:50:44;;;;;;;2.97;2.35;;;15.20;99.90;;;;;;4905000;29;20056;-65
2023/09/03 05:53:12;;;;;;;4.45;2.47;;;15.30;99.90;;;;;;4906353;29;20131;-66
2023/09/03 05:55:39;;;;;;;4.22;2.33;;;15.40;99.90;;;;;;4898435;29;20618;-67
2023/09/03 05:58:07;;;;;;;7.88;4.60;;;15.40;99.90;;;;;;4898548;29;20068;-72
2023/09/03 06:00:40;;;;;;;6.40;3.67;;;15.60;99.90;;;;;;4900737;29;20112;-65
2023/09/03 06:03:10;;;;;;;3.17;2.28;;;15.60;99.90;;;;;;4904071;29;20059;-66
2023/09/03 06:05:37;;;;;;;3.67;2.97;;;15.60;99.90;;;;;;4901150;29;20052;-66
2023/09/03 06:08:04;;;;;;;5.63;2.67;;;15.70;99.90;;;;;;4906393;29;20064;-65
2023/09/03 06:10:31;;;;;;;6.10;2.60;;;15.70;99.90;;;;;;4908116;29;20048;-66
2023/09/03 06:12:58;;;;;;;3.08;2.17;;;15.80;99.90;;;;;;4902219;29;20064;-66
2023/09/03 06:15:25;;;;;;;3.17;2.30;;;15.90;99.90;;;;;;4904859;29;20048;-66
2023/09/03 06:17:53;;;;;;;9.65;3.88;;;15.80;99.90;;;;;;4907603;29;20394;-66
2023/09/03 06:20:21;;;;;;;3.85;2.63;;;15.90;99.90;;;;;;4908161;29;20048;-71
2023/09/03 06:22:48;;;;;;;4.57;2.33;;;15.90;99.90;;;;;;4904407;29;20039;-65
2023/09/03 06:25:15;;;;;;;2.78;2.08;;;15.90;99.90;;;;;;4902989;29;20067;-66
2023/09/03 06:27:42;;;;;;;3.58;2.50;;;16.00;99.90;;;;;;4906525;29;20067;-66
2023/09/03 06:30:09;;;;;;;4.95;2.35;;;16.00;99.90;;;;;;4904298;29;20383;-66
2023/09/03 06:32:37;;;;;;;3.83;2.33;;;16.00;99.90;;;;;;4904535;29;20372;-66
2023/09/03 06:35:04;;;;;;;5.20;2.25;;;15.90;99.90;;;;;;4910409;29;20461;-66
2023/09/03 06:37:31;;;;;;;2.75;2.15;;;15.90;99.90;;;;;;4908806;29;20099;-66
2023/09/03 06:39:58;;;;;;;6.60;2.75;;;15.90;99.90;;;;;;4902973;29;20048;-66
2023/09/03 06:42:27;;;;;;;3.63;2.30;;;15.90;99.90;;;;;;4905381;29;20515;-65
2023/09/03 06:44:54;;;;;;;3.33;2.47;;;15.90;99.90;;;;;;4900824;29;20048;-67
2023/09/03 06:47:21;;;;;;;1.98;1.70;;;15.90;99.90;;;;;;4909034;29;20052;-65
2023/09/03 06:49:51;;;;;;;2.13;1.65;;;15.80;99.90;;;;;;4901588;29;20096;-65
2023/09/03 06:52:18;;;;;;;3.50;1.73;;;15.80;99.90;;;;;;4906098;29;20771;-71
2023/09/03 06:54:46;;;;;;;2.92;2.30;;;15.80;99.90;;;;;;4904643;29;20068;-66
2023/09/03 06:57:13;;;;;;;3.08;2.33;;;15.90;99.90;;;;;;4903584;29;20069;-69
2023/09/03 06:59:55;;;;;;;6.25;3.83;;;15.90;99.90;;;;;;4906352;29;20479;-66
2023/09/03 07:02:25;;;;;;;4.82;2.60;;;15.90;99.90;;;;;;4904885;29;20049;-70
2023/09/03 07:04:56;;;;;;;3.03;2.80;;;15.90;99.90;;;;;;4906031;29;20112;-66
2023/09/03 07:07:23;;;;;;;4.93;2.58;;;15.90;99.90;;;;;;4900200;29;20115;-66
2023/09/03 07:09:49;;;;;;;3.85;2.10;;;15.90;99.90;;;;;;4903672;29;20447;-66
2023/09/03 07:12:16;;;;;;;2.78;2.35;;;15.90;99.90;;;;;;4905508;29;20052;-65
2023/09/03 07:14:43;;;;;;;4.75;1.95;;;15.90;99.90;;;;;;4901979;29;20052;-68
2023/09/03 07:17:10;;;;;;;2.85;2.22;;;15.90;99.90;;;;;;4898324;29;20097;-66
2023/09/03 07:19:37;;;;;;;3.15;2.20;;;15.90;99.90;;;;;;4901332;29;20045;-65
2023/09/03 07:22:04;;;;;;;5.68;2.88;;;16.00;99.90;;;;;;4906165;29;20454;-66
2023/09/03 07:24:31;;;;;;;5.97;2.67;;;16.00;99.90;;;;;;4896803;29;20131;-67
2023/09/03 07:26:58;;;;;;;3.33;2.30;;;16.00;99.90;;;;;;4907863;29;20055;-64
2023/09/03 07:29:25;;;;;;;3.42;2.22;;;16.00;99.90;;;;;;4905392;29;20140;-68
2023/09/03 07:31:51;;;;;;;3.65;1.92;;;16.10;99.90;;;;;;4902716;29;20551;-66
2023/09/03 07:34:18;;;;;;;6.32;3.38;;;16.10;99.90;;;;;;4901593;29;20048;-66
2023/09/03 07:36:45;;;;;;;2.60;2.40;;;16.10;99.90;;;;;;4902607;29;20127;-65
2023/09/03 07:39:12;;;;;;;3.08;1.98;;;16.20;99.90;;;;;;4903856;29;20052;-68
2023/09/03 07:41:39;;;;;;;2.45;2.20;;;16.20;99.90;;;;;;4906989;29;20068;-66
2023/09/03 07:44:08;;;;;;;5.47;2.25;;;16.30;99.90;;;;;;4903591;29;20087;-69
2023/09/03 07:46:35;;;;;;;5.53;2.88;;;16.30;99.90;;;;;;4905163;29;20048;-69
2023/09/03 07:49:02;;;;;;;2.33;1.75;;;16.30;99.90;;;;;;4899992;29;20052;-66
2023/09/03 07:51:28;;;;;;;6.80;2.72;;;16.40;99.90;;;;;;4901182;29;20056;-67
2023/09/03 07:53:55;;;;;;;2.05;1.85;;;16.40;99.90;;;;;;4904960;29;20515;-69
2023/09/03 07:56:22;;;;;;;8.98;3.15;;;16.40;99.90;;;;;;4904142;29;20391;-71
2023/09/03 07:58:49;;;;;;;2.50;2.20;;;16.40;99.90;;;;;;4904689;29;20045;-66
2023/09/03 08:01:16;;;;;;;3.20;1.88;;;16.50;99.90;;;;;;4902377;29;20864;-67
2023/09/03 08:03:44;;;;;;;5.60;2.20;;;16.50;99.90;;;;;;4904301;29;20660;-67
2023/09/03 08:06:11;;;;;;;2.70;2.25;;;16.60;99.90;;;;;;4901655;29;20669;-67
2023/09/03 08:08:38;;;;;;;3.70;2.30;;;16.70;99.90;;;;;;4905419;29;20119;-71
2023/09/03 08:11:05;;;;;;;4.28;2.55;;;16.60;99.90;;;;;;4901197;29;20052;-69
2023/09/03 08:13:32;;;;;;;2.47;2.28;;;16.60;99.90;;;;;;4900888;29;20142;-66
2023/09/03 08:15:59;;;;;;;3.80;2.47;;;16.60;99.90;;;;;;4909843;29;20095;-67
2023/09/03 08:18:26;;;;;;;4.15;2.33;;;16.50;99.90;;;;;;4901636;29;20065;-71
2023/09/03 08:20:53;;;;;;;2.72;2.38;;;16.60;99.90;;;;;;4902062;29;20135;-65
2023/09/03 08:23:20;;;;;;;4.38;2.38;;;16.50;99.90;;;;;;4908094;29;20099;-69
2023/09/03 08:25:47;;;;;;;3.45;2.70;;;16.50;99.90;;;;;;4904802;29;20055;-68
2023/09/03 08:28:14;;;;;;;2.35;1.95;;;16.40;99.90;;;;;;4906417;29;20060;-71
2023/09/03 08:30:41;;;;;;;2.63;2.42;;;16.40;99.90;;;;;;4904209;29;20040;-69
2023/09/03 08:33:08;;;;;;;2.38;2.05;;;16.30;99.90;;;;;;4905610;29;20057;-69
2023/09/03 08:35:38;;;;;;;4.90;2.50;;;16.30;99.90;;;;;;4904838;29;20067;-65
2023/09/03 08:38:05;;;;;;;3.17;2.17;;;16.40;99.90;;;;;;4906715;29;20402;-66
2023/09/03 08:40:36;;;;;;;2.50;2.30;;;16.40;99.90;;;;;;4910318;29;20044;-67
2023/09/03 08:43:08;;;;;;;2.53;2.33;;;16.50;99.90;;;;;;4905093;29;20052;-67
2023/09/03 08:45:41;;;;;;;3.88;2.08;;;16.50;99.90;;;;;;4905438;29;20394;-68
2023/09/03 08:48:08;;;;;;;2.58;2.35;;;16.50;99.90;;;;;;4908282;29;20379;-67
2023/09/03 08:50:35;;;;;;;3.88;2.85;;;16.50;99.90;;;;;;4902775;29;20036;-66
2023/09/03 08:53:02;;;;;;;5.15;3.17;;;16.40;99.90;;;;;;4904750;29;20136;-67
2023/09/03 08:55:32;;;;;;;2.90;1.80;;;16.40;99.90;;;;;;4904198;29;20048;-72
2023/09/03 08:57:59;;;;;;;3.97;2.55;;;16.50;99.90;;;;;;4906196;29;20052;-66
2023/09/03 09:00:26;;;;;;;2.63;2.30;;;16.50;99.90;;;;;;4906628;29;20048;-68
2023/09/03 09:02:54;;;;;;;2.67;2.22;;;16.60;99.90;;;;;;4905470;29;20048;-66
2023/09/03 09:05:22;;;;;;;5.60;2.60;;;16.60;99.90;;;;;;4907352;29;20055;-67
2023/09/03 09:07:49;;;;;;;2.53;2.13;;;16.60;99.90;;;;;;4904455;29;20151;-66
2023/09/03 09:10:20;;;;;;;3.90;2.05;;;16.60;99.90;;;;;;4906703;29;20475;-65
2023/09/03 09:13:06;;;;;;;3.72;2.67;;;16.70;99.90;;;;;;4908326;29;20487;-67
2023/09/03 09:15:42;;;;;;;12.20;4.13;;;16.70;99.90;;;;;;4906116;29;20083;-68
2023/09/03 09:18:10;;;;;;;2.00;1.80;;;16.60;99.90;;;;;;4906396;29;20059;-66
2023/09/03 09:20:38;;;;;;;3.33;2.05;;;16.70;99.90;;;;;;4908254;29;20096;-67
2023/09/03 09:23:07;;;;;;;2.85;2.10;;;16.80;99.90;;;;;;4907165;29;20044;-66
2023/09/03 09:25:35;;;;;;;2.33;1.90;;;16.80;99.90;;;;;;4904770;29;20045;-66
2023/09/03 09:28:11;;;;;;;3.40;2.30;;;16.70;99.90;;;;;;4905285;29;20052;-65
2023/09/03 09:30:52;;;;;;;3.35;2.42;;;16.80;99.90;;;;;;4905004;29;20048;-65
2023/09/03 09:33:20;;;;;;;2.33;1.83;;;16.80;99.90;;;;;;4903383;29;20550;-66
2023/09/03 09:35:48;;;;;;;4.05;2.38;;;16.90;99.90;;;;;;4907069;29;20052;-65
2023/09/03 09:38:16;;;;;;;2.75;1.90;;;17.10;99.90;;;;;;4904031;29;20072;-66
2023/09/03 09:40:43;;;;;;;5.18;2.35;;;16.90;99.90;;;;;;4902325;29;20076;-65
2023/09/03 09:43:10;;;;;;;2.58;2.05;;;16.90;99.90;;;;;;4906676;29;20108;-66
2023/09/03 09:45:52;;;;;;;4.35;2.90;;;17.00;99.90;;;;;;4908127;29;20053;-67
2023/09/03 09:48:19;;;;;;;7.22;2.63;;;17.00;99.90;;;;;;4905497;29;20386;-66
2023/09/03 09:50:47;;;;;;;5.65;1.63;;;16.90;99.90;;;;;;4904008;29;20056;-65
2023/09/03 09:53:26;;;;;;;4.35;2.03;;;16.90;99.90;;;;;;4906419;29;20052;-69
2023/09/03 09:56:07;;;;;;;3.67;2.92;;;16.80;99.90;;;;;;4885359;29;20573;-71
2023/09/03 09:58:39;;;;;;;3.90;2.03;;;16.70;99.90;;;;;;4905190;29;20411;-68
2023/09/03 10:01:06;;;;;;;4.28;2.10;;;16.80;99.90;;;;;;4906224;29;20044;-66
2023/09/03 10:03:47;;;;;;;3.00;2.70;;;16.90;99.90;;;;;;4907349;29;20059;-65
2023/09/03 10:06:16;;;;;;;4.20;2.63;;;17.00;99.90;;;;;;4903748;29;20443;-67
2023/09/03 10:08:47;;;;;;;3.10;2.70;;;17.10;99.90;;;;;;4905546;29;20047;-66
2023/09/03 10:11:19;;;;;;;3.38;1.92;;;17.10;99.90;;;;;;4901385;29;20489;-65
2023/09/03 10:13:47;;;;;;;3.22;2.53;;;17.20;99.90;;;;;;4904626;29;20376;-68
2023/09/03 10:16:18;;;;;;;4.57;1.98;;;17.30;99.90;;;;;;4906170;29;20048;-67
2023/09/03 10:18:48;;;;;;;;;;;17.20;99.90;;;;;;4905395;29;20099;-69
2023/09/03 10:21:25;;;;;;;1.80;1.70;;;17.30;99.90;;;;;;4903983;29;19934;-66
2023/09/03 10:24:15;;;;;;;4.05;2.25;;;17.30;99.90;;;;;;4905350;29;20419;-66
2023/09/03 10:26:45;;;;;;;3.05;2.35;;;17.20;99.90;;;;;;4900421;29;20052;-69
2023/09/03 10:29:19;;;;;;;2.83;2.35;;;17.10;99.90;;;;;;4904676;29;20051;-66
2023/09/03 10:31:47;;;;;;;2.53;2.17;;;17.20;99.90;;;;;;4908080;29;20076;-65
2023/09/03 10:34:15;;;;;;;4.30;1.98;;;17.30;99.90;;;;;;4904566;29;20082;-68
2023/09/03 10:37:05;;;;;;;2.40;1.83;;;17.30;99.90;;;;;;4900871;29;20115;-67
2023/09/03 10:39:33;;;;;;;3.58;2.40;;;17.30;99.90;;;;;;4906263;29;20455;-67
2023/09/03 10:42:15;;;;;;;3.28;2.65;;;17.30;99.90;;;;;;4908069;29;20102;-69
2023/09/03 10:44:50;;;;;;;1.90;1.70;;;17.40;99.90;;;;;;4904228;29;20071;-65
2023/09/03 10:47:18;;;;;;;3.50;3.22;;;17.40;99.90;;;;;;4906253;29;20051;-65
2023/09/03 10:49:47;;;;;;;2.67;2.20;;;17.30;99.90;;;;;;4904366;29;20488;-67
2023/09/03 10:52:27;;;;;;;3.22;2.25;;;17.30;99.90;;;;;;4898074;29;20056;-64
2023/09/03 10:55:17;;;;;;;2.33;2.13;;;17.40;99.90;;;;;;4904265;29;20052;-71
2023/09/03 10:57:45;;;;;;;2.47;2.28;;;17.50;99.90;;;;;;4906126;29;20055;-66
2023/09/03 11:00:18;;;;;;;4.13;2.30;;;17.50;99.90;;;;;;4905882;29;20060;-67
2023/09/03 11:02:45;;;;;;;2.78;2.50;;;17.50;99.90;;;;;;4905565;29;20482;-67
2023/09/03 11:05:26;;;;;;;4.10;2.83;;;17.60;99.90;;;;;;4884120;29;20507;-67
2023/09/03 11:08:29;;;;;;;2.95;2.10;;;17.60;99.90;;;;;;4907970;29;20059;-68
2023/09/03 11:10:58;;;;;;;2.97;2.30;;;17.40;99.90;;;;;;4904501;29;20143;-67
2023/09/03 11:13:27;;;;;;;2.78;2.22;;;17.40;99.90;;;;;;4907376;29;20052;-66
2023/09/03 11:16:05;;;;;;;2.67;2.08;;;17.50;99.90;;;;;;4902462;29;20081;-65
2023/09/03 11:18:32;;;;;;;2.70;2.10;;;17.60;99.90;;;;;;4903586;29;20050;-67
2023/09/03 11:21:01;;;;;;;4.57;2.75;;;17.70;99.90;;;;;;4904135;29;20051;-65
2023/09/03 11:23:29;;;;;;;2.90;2.35;;;17.70;99.90;;;;;;4903016;29;20151;-65
2023/09/03 11:26:11;;;;;;;3.00;2.17;;;17.50;99.90;;;;;;4908853;29;20052;-64
2023/09/03 11:28:45;;;;;;;2.63;2.22;;;17.40;99.90;;;;;;4902619;29;20036;-66
2023/09/03 11:31:12;;;;;;;5.05;2.42;;;17.40;99.90;;;;;;4905445;29;20047;-64
2023/09/03 11:33:39;;;;;;;2.53;2.33;;;17.50;99.90;;;;;;4907358;29;20059;-66
2023/09/03 11:36:06;;;;;;;4.35;2.25;;;17.70;99.90;;;;;;4904394;29;20540;-65
2023/09/03 11:38:34;;;;;;;2.03;1.83;;;17.80;99.90;;;;;;4902014;29;20040;-65
2023/09/03 11:41:02;;;;;;;3.40;2.47;;;17.50;99.90;;;;;;4902254;29;20053;-65
2023/09/03 11:43:30;;;;;;;2.97;2.22;;;17.50;99.90;;;;;;4905134;29;20085;-65
2023/09/03 11:46:00;;;;;;;3.88;2.33;;;17.50;99.90;;;;;;4901350;29;20067;-64
2023/09/03 11:48:32;;;;;;;3.85;2.55;;;17.50;99.90;;;;;;4903071;29;20052;-73
2023/09/03 11:50:59;;;;;;;4.50;2.97;;;17.80;99.90;;;;;;4902931;29;20101;-66
2023/09/03 11:53:36;;;;;;;3.83;2.58;;;17.80;99.90;;;;;;4904557;29;20072;-64
2023/09/03 11:56:04;;;;;;;2.85;2.60;;;17.70;99.90;;;;;;4906843;29;20072;-65
2023/09/03 11:58:31;;;;;;;2.60;2.03;;;17.70;99.90;;;;;;4905771;29;20476;-65
2023/09/03 12:00:58;;;;;;;3.22;2.95;;;17.80;99.90;;;;;;4910046;29;20099;-65
2023/09/03 12:03:25;;;;;;;3.45;2.05;;;17.80;99.90;;;;;;4906988;29;20543;-64
2023/09/03 12:05:53;;;;;;;3.00;2.55;;;17.80;99.90;;;;;;4889700;29;20047;-66
2023/09/03 12:08:20;;;;;;;4.10;2.28;;;17.80;99.90;;;;;;4908836;29;20432;-64
2023/09/03 12:10:48;;;;;;;2.35;2.05;;;17.70;99.90;;;;;;4907082;29;20080;-65
2023/09/03 12:13:29;;;;;;;1.95;1.85;;;17.70;99.90;;;;;;4903033;29;20130;-64
2023/09/03 12:16:10;;;;;;;3.22;2.70;;;17.90;99.90;;;;;;4904448;29;20133;-65
2023/09/03 12:18:38;;;;;;;2.67;2.05;;;17.90;99.90;;;;;;4906313;29;20058;-66
2023/09/03 12:21:07;;;;;;;4.22;3.05;;;17.90;99.90;;;;;;4908015;29;20523;-71
2023/09/03 12:23:35;;;;;;;4.05;3.28;;;17.90;99.90;;;;;;4899569;29;20055;-66
2023/09/03 12:26:03;;;;;;;2.63;2.25;;;17.90;99.90;;;;;;4907780;29;20054;-65
2023/09/03 12:28:40;;;;;;;3.03;2.15;;;17.90;99.90;;;;;;4908369;29;20075;-70
2023/09/03 12:31:06;;;;;;;3.00;2.17;;;17.90;99.90;;;;;;4906782;29;20080;-67
2023/09/03 12:33:34;;;;;;;2.45;2.10;;;17.90;99.90;;;;;;4907338;29;20100;-67
2023/09/03 12:36:13;;;;;;;4.25;1.92;;;18.00;99.90;;;;;;4907348;29;20407;-64
2023/09/03 12:38:53;;;;;;;2.92;2.47;;;18.00;99.90;;;;;;4901096;29;20132;-65
2023/09/03 12:41:21;;;;;;;;;;;17.70;99.90;;;;;;4906847;29;20054;-65
2023/09/03 12:43:48;;;;;;;3.85;1.58;;;17.70;99.90;;;;;;4908760;29;19962;-66
2023/09/03 12:46:15;;;;;;;2.92;2.53;;;17.80;99.90;;;;;;4906941;29;20079;-66
2023/09/03 12:48:45;;;;;;;1.88;1.65;;;17.90;99.90;;;;;;4907729;29;20048;-66
2023/09/03 12:51:16;;;;;;;;;;;17.80;99.90;;;;;;4908901;29;20076;-65
2023/09/03 12:53:44;;;;;;;3.40;2.05;;;17.90;99.90;;;;;;4907665;29;19934;-68
2023/09/03 12:56:12;;;;;;;2.53;2.00;;;17.90;99.90;;;;;;4903389;29;20064;-66
2023/09/03 12:58:39;;;;;;;3.90;1.80;;;17.90;99.90;;;;;;4908868;29;20052;-69
2023/09/03 13:01:08;;;;;;;2.45;2.22;;;17.80;99.90;;;;;;4903113;29;20041;-67